Terminal Aerodrome Forecast
Issued by NWS Jackson, MS

Home | Current Version | Previous Version | Text Only | Print | Product List | Glossary On
Versions: 1 2 3 4 5 6 7 8 9 10 11 12 13 14 15 16 17 18
000
FTUS44 KJAN 041120
TAFMEI
TAF
KMEI 041120Z 0412/0512 31006KT P6SM SKC
     FM041400 31007KT P6SM SKC
     FM041700 30014G21KT P6SM SKC
     FM042300 29010KT P6SM FEW250=

USA.gov is the U.S. government's official web portal to all federal, state and local government web resources and services.